Time,TemperatureF,DewpointF,PressureIn,WindDirection,WindDirectionDegrees,WindSpeedMPH,WindSpeedGustMPH,Humidity,HourlyPrecipIn,Conditions,Clouds,dailyrainin,SoftwareType,DateUTC
2013-03-13 00:00:00,39.0,25.9,30.08,SW,222,0.0,0.0,59,0.00,SCT,,0.00,WeatherDisplay:10.37,2013-03-13 04:00:00,
2013-03-13 00:05:00,39.4,26.2,30.09,SW,222,3.3,3.5,59,0.00,SCT,,0.00,WeatherDisplay:10.37,2013-03-13 04:05:00,
2013-03-13 00:10:00,39.4,26.2,30.09,West,267,10.9,11.5,59,0.00,SCT,,0.00,WeatherDisplay:10.37,2013-03-13 04:10:00,
2013-03-13 00:15:00,39.4,26.2,30.09,WSW,245,3.1,3.5,59,0.00,SCT,,0.00,WeatherDisplay:10.37,2013-03-13 04:15:00,
2013-03-13 00:20:00,39.4,26.6,30.09,West,267,3.1,3.5,60,0.00,SCT,,0.00,WeatherDisplay:10.37,2013-03-13 04:20:00,
2013-03-13 00:25:00,39.4,26.6,30.09,West,267,0.0,0.0,60,0.00,SCT,,0.00,WeatherDisplay:10.37,2013-03-13 04:25:00,
2013-03-13 00:30:00,39.4,26.6,30.10,SW,222,0.4,3.6,60,0.00,SCT,,0.00,WeatherDisplay:10.37,2013-03-13 04:30:00,
2013-03-13 00:35:00,38.8,26.1,30.10,West,267,3.4,3.5,60,0.00,SCT,,0.00,WeatherDisplay:10.37,2013-03-13 04:35:00,
2013-03-13 00:40:00,38.8,26.5,30.09,WNW,289,4.5,5.8,61,0.00,SCT,,0.00,WeatherDisplay:10.37,2013-03-13 04:40:00,
2013-03-13 00:45:00,38.8,26.5,30.10,NW,312,0.0,0.0,61,0.00,SCT,,0.00,WeatherDisplay:10.37,2013-03-13 04:45:00,
2013-03-13 00:50:00,38.5,26.6,30.10,WNW,289,2.7,2.7,62,0.00,SCT,,0.00,WeatherDisplay:10.37,2013-03-13 04:50:00,
2013-03-13 00:55:00,38.5,26.6,30.09,WNW,289,2.5,2.5,62,0.00,SCT,,0.00,WeatherDisplay:10.37,2013-03-13 04:55:00,
2013-03-13 01:00:00,38.5,27.0,30.10,WNW,289,0.5,2.3,63,0.00,SCT,,0.00,WeatherDisplay:10.37,2013-03-13 05:00:00,
2013-03-13 01:05:00,38.5,27.0,30.10,WNW,289,0.5,0.0,63,0.00,SCT,,0.00,WeatherDisplay:10.37,2013-03-13 05:05:00,
2013-03-13 01:10:00,38.3,27.2,30.10,NNW,335,2.0,2.3,64,0.00,BKN,,0.00,WeatherDisplay:10.37,2013-03-13 05:10:00,
2013-03-13 01:15:00,38.1,27.4,30.10,West,267,0.0,0.0,65,0.00,BKN,,0.00,WeatherDisplay:10.37,2013-03-13 05:15:00,
2013-03-13 01:20:00,37.9,27.6,30.09,West,267,2.0,3.5,66,0.00,BKN,,0.00,WeatherDisplay:10.37,2013-03-13 05:20:00,
2013-03-13 01:25:00,37.8,27.4,30.09,West,267,0.0,0.0,66,0.00,BKN,,0.00,WeatherDisplay:10.37,2013-03-13 05:25:00,
2013-03-13 01:30:00,37.2,26.9,30.09,WSW,245,0.0,0.0,66,0.00,BKN,,0.00,WeatherDisplay:10.37,2013-03-13 05:30:00,
2013-03-13 01:35:00,37.2,27.3,30.09,WSW,245,0.0,0.0,67,0.00,BKN,,0.00,WeatherDisplay:10.37,2013-03-13 05:35:00,
2013-03-13 01:40:00,37.0,27.1,30.09,WSW,245,1.6,1.6,67,0.00,BKN,,0.00,WeatherDisplay:10.37,2013-03-13 05:40:00,
2013-03-13 01:45:00,36.5,26.9,30.09,West,267,0.0,0.0,68,0.00,BKN,,0.00,WeatherDisplay:10.37,2013-03-13 05:45:00,
2013-03-13 01:50:00,36.3,26.8,30.09,West,267,0.0,0.0,68,0.00,BKN,,0.00,WeatherDisplay:10.37,2013-03-13 05:50:00,
2013-03-13 01:55:00,36.1,26.9,30.09,NW,312,3.1,3.5,69,0.00,BKN,,0.00,WeatherDisplay:10.37,2013-03-13 05:55:00,
2013-03-13 02:00:00,36.0,27.1,30.09,NNW,335,0.0,2.2,70,0.00,BKN,,0.00,WeatherDisplay:10.37,2013-03-13 06:00:00,
2013-03-13 02:05:00,36.0,27.1,30.09,WNW,289,0.0,0.0,70,0.00,BKN,,0.00,WeatherDisplay:10.37,2013-03-13 06:05:00,
2013-03-13 02:10:00,36.0,27.5,30.10,West,267,0.0,0.0,71,0.00,SCT,,0.00,WeatherDisplay:10.37,2013-03-13 06:10:00,
2013-03-13 02:15:00,36.0,27.5,30.10,West,267,1.4,2.3,71,0.00,SCT,,0.00,WeatherDisplay:10.37,2013-03-13 06:15:00,
2013-03-13 02:20:00,36.0,27.5,30.09,WSW,245,0.2,2.3,71,0.00,SCT,,0.00,WeatherDisplay:10.37,2013-03-13 06:20:00,
2013-03-13 02:25:00,35.8,27.3,30.09,SW,222,0.0,0.0,71,0.00,SCT,,0.00,WeatherDisplay:10.37,2013-03-13 06:25:00,
2013-03-13 02:30:00,35.8,27.3,30.09,WSW,245,0.0,0.0,71,0.00,SCT,,0.00,WeatherDisplay:10.37,2013-03-13 06:30:00,
2013-03-13 02:35:00,35.4,27.3,30.08,West,267,0.2,2.3,72,0.00,SCT,,0.00,WeatherDisplay:10.37,2013-03-13 06:35:00,
2013-03-13 02:40:00,35.4,27.3,30.09,West,267,1.8,2.3,72,0.00,SCT,,0.00,WeatherDisplay:10.37,2013-03-13 06:40:00,
2013-03-13 02:45:00,35.4,27.3,30.09,WSW,245,0.0,0.0,72,0.00,SCT,,0.00,WeatherDisplay:10.37,2013-03-13 06:45:00,
2013-03-13 02:50:00,35.2,27.1,30.09,West,267,1.4,2.3,72,0.00,SCT,,0.00,WeatherDisplay:10.37,2013-03-13 06:50:00,
2013-03-13 02:55:00,35.4,27.6,30.08,West,267,1.6,1.6,73,0.00,SCT,,0.00,WeatherDisplay:10.37,2013-03-13 06:55:00,
2013-03-13 03:00:00,35.4,27.6,30.09,WSW,245,10.9,11.5,73,0.00,SCT,,0.00,WeatherDisplay:10.37,2013-03-13 07:00:00,
2013-03-13 03:05:00,35.4,27.6,30.09,WSW,245,7.8,8.1,73,0.00,SCT,,0.00,WeatherDisplay:10.37,2013-03-13 07:05:00,
2013-03-13 03:10:00,35.8,27.6,30.09,SSW,199,3.8,3.8,72,0.00,OVC,,0.00,WeatherDisplay:10.37,2013-03-13 07:10:00,
2013-03-13 03:15:00,36.0,27.5,30.09,West,267,3.9,4.6,71,0.00,OVC,,0.00,WeatherDisplay:10.37,2013-03-13 07:15:00,
2013-03-13 03:20:00,36.0,27.1,30.09,West,267,4.8,8.1,70,0.00,OVC,,0.00,WeatherDisplay:10.37,2013-03-13 07:20:00,
2013-03-13 03:25:00,36.0,27.1,30.09,West,267,3.6,3.8,70,0.00,OVC,,0.00,WeatherDisplay:10.37,2013-03-13 07:25:00,
2013-03-13 03:30:00,35.8,26.6,30.08,West,267,6.3,8.1,69,0.00,OVC,,0.00,WeatherDisplay:10.37,2013-03-13 07:30:00,
2013-03-13 03:35:00,35.6,26.4,30.08,West,267,6.3,6.3,69,0.00,OVC,,0.00,WeatherDisplay:10.37,2013-03-13 07:35:00,
2013-03-13 03:40:00,35.4,26.3,30.08,WSW,245,4.7,4.7,69,0.00,OVC,,0.00,WeatherDisplay:10.37,2013-03-13 07:40:00,
2013-03-13 03:45:00,35.4,26.3,30.08,SSW,199,4.8,4.8,69,0.00,OVC,,0.00,WeatherDisplay:10.37,2013-03-13 07:45:00,
2013-03-13 03:50:00,35.2,26.1,30.08,WNW,289,5.3,5.8,69,0.00,OVC,,0.00,WeatherDisplay:10.37,2013-03-13 07:50:00,
2013-03-13 03:55:00,34.9,25.4,30.08,West,267,4.0,6.3,68,0.00,OVC,,0.00,WeatherDisplay:10.37,2013-03-13 07:55:00,
2013-03-13 04:00:00,34.7,25.2,30.09,West,267,3.8,4.6,68,0.00,OVC,,0.00,WeatherDisplay:10.37,2013-03-13 08:00:00,
2013-03-13 04:09:00,34.3,24.9,30.08,West,267,4.2,4.7,68,0.00,OVC,,0.00,WeatherDisplay:10.37,2013-03-13 08:09:00,
2013-03-13 04:14:00,34.3,24.5,30.08,West,267,5.3,5.3,67,0.00,OVC,,0.00,WeatherDisplay:10.37,2013-03-13 08:14:00,
2013-03-13 04:19:00,34.3,24.5,30.08,WNW,289,2.0,2.3,67,0.00,OVC,,0.00,WeatherDisplay:10.37,2013-03-13 08:19:00,
2013-03-13 04:24:00,34.2,24.3,30.08,West,267,3.5,9.2,67,0.00,OVC,,0.00,WeatherDisplay:10.37,2013-03-13 08:24:00,
2013-03-13 04:29:00,34.0,24.5,30.08,West,267,3.1,3.5,68,0.00,OVC,,0.00,WeatherDisplay:10.37,2013-03-13 08:29:00,
2013-03-13 04:34:00,33.8,24.4,30.08,SW,222,2.2,8.0,68,0.00,OVC,,0.00,WeatherDisplay:10.37,2013-03-13 08:34:00,
2013-03-13 04:39:00,33.6,24.2,30.08,South,177,3.2,4.6,68,0.00,OVC,,0.00,WeatherDisplay:10.37,2013-03-13 08:39:00,
2013-03-13 04:44:00,33.8,24.4,30.08,West,267,4.7,4.7,68,0.00,OVC,,0.00,WeatherDisplay:10.37,2013-03-13 08:44:00,
2013-03-13 04:49:00,33.8,24.0,30.08,West,267,6.7,6.9,67,0.00,OVC,,0.00,WeatherDisplay:10.37,2013-03-13 08:49:00,
2013-03-13 04:54:00,33.8,24.0,30.08,West,267,3.1,4.6,67,0.00,OVC,,0.00,WeatherDisplay:10.37,2013-03-13 08:54:00,
2013-03-13 04:59:00,33.8,24.0,30.08,West,267,4.0,4.0,67,0.00,OVC,,0.00,WeatherDisplay:10.37,2013-03-13 08:59:00,
2013-03-13 05:04:00,33.8,24.0,30.08,West,267,4.0,4.0,67,0.00,OVC,,0.00,WeatherDisplay:10.37,2013-03-13 09:04:00,
2013-03-13 05:09:00,33.8,24.0,30.08,West,267,4.3,9.2,67,0.00,OVC,,0.00,WeatherDisplay:10.37,2013-03-13 09:09:00,
2013-03-13 05:14:00,33.8,24.0,30.08,West,267,4.3,9.2,67,0.00,OVC,,0.00,WeatherDisplay:10.37,2013-03-13 09:14:00,
2013-03-13 05:19:00,33.8,24.0,30.08,West,267,8.7,9.2,67,0.00,OVC,,0.00,WeatherDisplay:10.37,2013-03-13 09:19:00,
2013-03-13 05:24:00,33.8,23.6,30.08,WSW,245,7.4,7.4,66,0.00,OVC,,0.00,WeatherDisplay:10.37,2013-03-13 09:24:00,
2013-03-13 05:29:00,33.8,23.6,30.08,WNW,289,4.3,4.6,66,0.00,OVC,,0.00,WeatherDisplay:10.37,2013-03-13 09:29:00,
2013-03-13 05:34:00,33.8,23.6,30.08,WNW,289,5.4,5.4,66,0.00,OVC,,0.00,WeatherDisplay:10.37,2013-03-13 09:34:00,
2013-03-13 05:39:00,33.6,23.5,30.08,WNW,289,0.7,6.9,66,0.00,OVC,,0.00,WeatherDisplay:10.37,2013-03-13 09:39:00,
2013-03-13 05:44:00,33.6,23.5,30.08,West,267,3.4,3.5,66,0.00,OVC,,0.00,WeatherDisplay:10.37,2013-03-13 09:44:00,
2013-03-13 05:49:00,33.4,23.3,30.08,West,267,3.4,3.5,66,0.00,OVC,,0.00,WeatherDisplay:10.37,2013-03-13 09:49:00,
2013-03-13 05:54:00,33.4,23.3,30.08,West,267,3.4,3.5,66,0.00,OVC,,0.00,WeatherDisplay:10.37,2013-03-13 09:54:00,
2013-03-13 05:59:00,33.4,23.3,30.08,West,267,4.0,6.9,66,0.00,OVC,,0.00,WeatherDisplay:10.37,2013-03-13 09:59:00,
2013-03-13 06:04:00,33.4,23.3,30.08,West,267,7.4,7.4,66,0.00,OVC,,0.00,WeatherDisplay:10.37,2013-03-13 10:04:00,
2013-03-13 06:09:00,33.6,23.5,30.09,WSW,245,13.6,16.1,66,0.00,-SN,,0.00,WeatherDisplay:10.37,2013-03-13 10:09:00,
2013-03-13 06:14:00,33.4,24.0,30.10,North,357,8.8,9.2,68,0.00,-SN,,0.00,WeatherDisplay:10.37,2013-03-13 10:14:00,
2013-03-13 06:19:00,33.1,24.7,30.10,NW,312,15.4,15.4,71,0.00,-SN,,0.00,WeatherDisplay:10.37,2013-03-13 10:19:00,
2013-03-13 06:24:00,31.8,23.8,30.10,West,267,8.9,9.2,72,0.00,-SN,,0.00,WeatherDisplay:10.37,2013-03-13 10:24:00,
2013-03-13 06:29:00,31.3,23.3,30.11,NW,312,3.4,11.5,72,0.00,-SN,,0.00,WeatherDisplay:10.37,2013-03-13 10:29:00,
2013-03-13 06:34:00,31.3,23.3,30.11,WNW,289,6.3,10.4,72,0.00,-SN,,0.00,WeatherDisplay:10.37,2013-03-13 10:34:00,
2013-03-13 06:39:00,30.9,23.3,30.11,West,267,5.1,5.1,73,0.00,-SN,,0.00,WeatherDisplay:10.37,2013-03-13 10:39:00,
2013-03-13 06:44:00,30.9,23.3,30.12,WSW,245,5.1,5.1,73,0.00,-SN,,0.00,WeatherDisplay:10.37,2013-03-13 10:44:00,
2013-03-13 06:49:00,30.9,23.0,30.11,SW,222,8.9,9.2,72,0.00,-SN,,0.00,WeatherDisplay:10.37,2013-03-13 10:49:00,
2013-03-13 06:54:00,30.7,22.1,30.12,SSW,199,9.8,10.4,70,0.00,-SN,,0.00,WeatherDisplay:10.37,2013-03-13 10:54:00,
2013-03-13 06:59:00,30.7,21.4,30.12,NW,312,13.0,16.1,68,0.00,-SN,,0.00,WeatherDisplay:10.37,2013-03-13 10:59:00,
2013-03-13 07:04:00,30.7,21.4,30.12,SW,222,10.5,10.5,68,0.00,-SN,,0.00,WeatherDisplay:10.37,2013-03-13 11:04:00,
2013-03-13 07:09:00,30.7,21.1,30.12,NW,312,8.2,9.2,67,0.00,OVC,,0.00,WeatherDisplay:10.37,2013-03-13 11:09:00,
2013-03-13 07:14:00,30.7,20.7,30.13,WNW,289,11.4,11.5,66,0.00,OVC,,0.00,WeatherDisplay:10.37,2013-03-13 11:14:00,
2013-03-13 07:19:00,30.7,20.7,30.13,NW,312,10.3,10.4,66,0.00,OVC,,0.00,WeatherDisplay:10.37,2013-03-13 11:19:00,
2013-03-13 07:24:00,30.6,20.5,30.13,SW,222,4.5,5.8,66,0.00,OVC,,0.00,WeatherDisplay:10.37,2013-03-13 11:24:00,
2013-03-13 07:29:00,30.4,20.4,30.13,West,267,8.5,9.2,66,0.00,OVC,,0.00,WeatherDisplay:10.37,2013-03-13 11:29:00,
2013-03-13 07:34:00,30.4,20.4,30.13,WNW,289,7.6,8.1,66,0.00,OVC,,0.00,WeatherDisplay:10.37,2013-03-13 11:34:00,
2013-03-13 07:39:00,30.2,20.2,30.14,NW,312,4.2,4.7,66,0.00,OVC,,0.00,WeatherDisplay:10.37,2013-03-13 11:39:00,
2013-03-13 07:44:00,30.0,20.0,30.14,West,267,7.2,8.1,66,0.00,OVC,,0.00,WeatherDisplay:10.37,2013-03-13 11:44:00,
2013-03-13 07:49:00,30.0,19.7,30.14,ESE,109,6.7,6.9,65,0.00,OVC,,0.00,WeatherDisplay:10.37,2013-03-13 11:49:00,
2013-03-13 07:54:00,29.8,19.5,30.14,WSW,245,7.4,9.4,65,0.00,OVC,,0.00,WeatherDisplay:10.37,2013-03-13 11:54:00,
2013-03-13 07:59:00,29.7,19.3,30.15,WNW,289,6.0,6.0,65,0.00,OVC,,0.00,WeatherDisplay:10.37,2013-03-13 11:59:00,
2013-03-13 08:04:00,29.5,19.2,30.14,West,267,2.0,2.3,65,0.00,OVC,,0.00,WeatherDisplay:10.37,2013-03-13 12:04:00,
2013-03-13 08:09:00,29.3,19.0,30.15,WNW,289,3.8,5.8,65,0.00,-SN,,0.00,WeatherDisplay:10.37,2013-03-13 12:09:00,
2013-03-13 08:14:00,29.1,18.5,30.15,West,267,0.7,6.9,64,0.00,-SN,,0.00,WeatherDisplay:10.37,2013-03-13 12:14:00,
2013-03-13 08:19:00,29.1,18.8,30.15,NW,312,2.9,11.4,65,0.00,-SN,,0.00,WeatherDisplay:10.37,2013-03-13 12:19:00,
2013-03-13 08:24:00,29.1,18.5,30.15,WNW,289,7.8,9.2,64,0.00,-SN,,0.00,WeatherDisplay:10.37,2013-03-13 12:24:00,
2013-03-13 08:29:00,29.1,18.5,30.15,West,267,7.7,11.5,64,0.00,-SN,,0.00,WeatherDisplay:10.37,2013-03-13 12:29:00,
2013-03-13 08:34:00,29.1,18.5,30.15,SW,222,6.7,12.3,64,0.00,-SN,,0.00,WeatherDisplay:10.37,2013-03-13 12:34:00,
2013-03-13 08:39:00,28.9,18.3,30.16,NW,312,4.8,4.8,64,0.00,-SN,,0.00,WeatherDisplay:10.37,2013-03-13 12:39:00,
2013-03-13 08:44:00,29.1,18.1,30.16,NW,312,7.8,8.1,63,0.00,-SN,,0.00,WeatherDisplay:10.37,2013-03-13 12:44:00,
2013-03-13 08:49:00,29.1,18.1,30.17,NW,312,3.1,10.5,63,0.00,-SN,,0.00,WeatherDisplay:10.37,2013-03-13 12:49:00,
2013-03-13 08:54:00,29.1,17.7,30.16,NNW,335,12.3,16.1,62,0.00,-SN,,0.00,WeatherDisplay:10.37,2013-03-13 12:54:00,
2013-03-13 08:59:00,29.3,17.9,30.16,NW,312,7.2,10.4,62,0.00,-SN,,0.00,WeatherDisplay:10.37,2013-03-13 12:59:00,
2013-03-13 09:04:00,29.5,18.1,30.17,NW,312,10.6,10.6,62,0.00,-SN,,0.00,WeatherDisplay:10.37,2013-03-13 13:04:00,
2013-03-13 09:09:00,30.0,18.6,30.17,WNW,289,15.9,17.3,62,0.00,OVC,,0.00,WeatherDisplay:10.37,2013-03-13 13:09:00,
2013-03-13 09:14:00,30.0,18.6,30.17,West,267,10.4,10.4,62,0.00,OVC,,0.00,WeatherDisplay:10.37,2013-03-13 13:14:00,
2013-03-13 09:19:00,29.8,18.4,30.18,West,267,7.4,7.4,62,0.00,OVC,,0.00,WeatherDisplay:10.37,2013-03-13 13:19:00,
2013-03-13 09:24:00,30.0,18.2,30.18,WNW,289,6.5,6.9,61,0.00,OVC,,0.00,WeatherDisplay:10.37,2013-03-13 13:24:00,
2013-03-13 09:29:00,29.8,18.0,30.18,NNW,335,9.6,9.6,61,0.00,OVC,,0.00,WeatherDisplay:10.37,2013-03-13 13:29:00,
2013-03-13 09:34:00,30.0,18.2,30.18,NNW,335,11.2,11.5,61,0.00,OVC,,0.00,WeatherDisplay:10.37,2013-03-13 13:34:00,
2013-03-13 09:39:00,30.0,17.8,30.18,West,267,9.8,10.4,60,0.00,OVC,,0.00,WeatherDisplay:10.37,2013-03-13 13:39:00,
2013-03-13 09:45:00,30.4,18.1,30.19,West,269,9.0,0.0,60,0.00,OVC,,0.00,WeatherDisplay:10.37,2013-03-13 13:45:00,
2013-03-13 09:50:00,30.9,18.3,30.19,NNW,335,5.1,5.1,59,0.00,OVC,,0.00,WeatherDisplay:10.37,2013-03-13 13:50:00,
2013-03-13 09:55:00,31.1,18.0,30.19,NNW,328,13.0,0.0,58,0.00,OVC,,0.00,WeatherDisplay:10.37,2013-03-13 13:55:00,
2013-03-13 10:00:00,31.1,18.0,30.20,NNW,335,5.3,5.8,58,0.00,OVC,,0.00,WeatherDisplay:10.37,2013-03-13 14:00:00,
2013-03-13 10:05:00,30.9,18.3,30.20,WNW,289,11.2,11.5,59,0.00,OVC,,0.00,WeatherDisplay:10.37,2013-03-13 14:05:00,
2013-03-13 10:10:00,30.7,18.5,30.20,West,267,6.0,6.9,60,0.00,-SN,,0.00,WeatherDisplay:10.37,2013-03-13 14:10:00,
2013-03-13 10:15:00,30.7,18.9,30.20,NW,304,5.0,0.0,61,0.00,-SN,,0.00,WeatherDisplay:10.37,2013-03-13 14:15:00,
2013-03-13 10:20:00,31.5,19.5,30.20,WNW,289,8.2,11.4,61,0.00,-SN,,0.00,WeatherDisplay:10.37,2013-03-13 14:20:00,
2013-03-13 10:25:00,31.6,19.3,30.20,West,278,7.0,0.0,60,0.00,-SN,,0.00,WeatherDisplay:10.37,2013-03-13 14:25:00,
2013-03-13 10:30:00,31.3,19.0,30.21,WSW,245,6.9,6.9,60,0.00,-SN,,0.00,WeatherDisplay:10.37,2013-03-13 14:30:00,
2013-03-13 10:35:00,31.3,19.0,30.21,WNW,295,9.0,0.0,60,0.00,-SN,,0.00,WeatherDisplay:10.37,2013-03-13 14:35:00,
2013-03-13 10:40:00,31.3,19.4,30.21,NW,312,11.3,11.3,61,0.00,-SN,,0.00,WeatherDisplay:10.37,2013-03-13 14:40:00,
2013-03-13 10:45:00,31.3,19.0,30.21,WNW,300,10.0,0.0,60,0.00,-SN,,0.00,WeatherDisplay:10.37,2013-03-13 14:45:00,
2013-03-13 10:50:00,30.9,17.9,30.22,NNW,335,22.1,22.1,58,0.00,-SN,,0.00,WeatherDisplay:10.37,2013-03-13 14:50:00,
2013-03-13 10:55:00,31.3,18.6,30.21,WNW,303,9.0,0.0,59,0.00,-SN,,0.00,WeatherDisplay:10.37,2013-03-13 14:55:00,
2013-03-13 11:00:00,32.2,19.4,30.22,NW,312,12.7,16.5,59,0.00,-SN,,0.00,WeatherDisplay:10.37,2013-03-13 15:00:00,
2013-03-13 11:05:00,31.8,18.7,30.22,WNW,286,13.0,0.0,58,0.00,-SN,,0.00,WeatherDisplay:10.37,2013-03-13 15:05:00,
2013-03-13 11:10:00,32.7,19.6,30.22,SW,222,7.5,8.1,58,0.00,-SN,,0.00,WeatherDisplay:10.37,2013-03-13 15:10:00,
2013-03-13 11:15:00,33.6,19.9,30.22,WNW,283,9.0,0.0,57,0.00,-SN,,0.00,WeatherDisplay:10.37,2013-03-13 15:15:00,
2013-03-13 11:20:00,33.4,18.6,30.22,NNW,335,12.6,16.1,54,0.00,-SN,,0.00,WeatherDisplay:10.37,2013-03-13 15:20:00,
2013-03-13 11:25:00,33.1,18.2,30.23,WNW,300,5.0,0.0,54,0.00,-SN,,0.00,WeatherDisplay:10.37,2013-03-13 15:25:00,
2013-03-13 11:30:00,32.2,17.4,30.23,NW,312,11.1,12.7,54,0.00,-SN,,0.00,WeatherDisplay:10.37,2013-03-13 15:30:00,
2013-03-13 11:35:00,31.8,16.6,30.24,WNW,301,9.0,0.0,53,0.00,-SN,,0.00,WeatherDisplay:10.37,2013-03-13 15:35:00,
2013-03-13 11:40:00,31.8,16.6,30.24,WNW,289,19.3,19.6,53,0.00,-SN,,0.00,WeatherDisplay:10.37,2013-03-13 15:40:00,
2013-03-13 11:45:00,31.8,16.6,30.23,NW,312,8.7,12.3,53,0.00,-SN,,0.00,WeatherDisplay:10.37,2013-03-13 15:45:00,
2013-03-13 11:50:00,33.1,17.3,30.24,NNW,335,19.0,19.6,52,0.00,-SN,,0.00,WeatherDisplay:10.37,2013-03-13 15:50:00,
2013-03-13 11:55:00,32.7,16.6,30.24,WNW,303,10.0,0.0,51,0.00,-SN,,0.00,WeatherDisplay:10.37,2013-03-13 15:55:00,
2013-03-13 12:00:00,33.4,17.2,30.24,SSW,199,14.5,15.0,51,0.00,-SN,,0.00,WeatherDisplay:10.37,2013-03-13 16:00:00,
2013-03-13 12:05:00,33.6,17.4,30.24,West,274,13.0,0.0,51,0.00,-SN,,0.00,WeatherDisplay:10.37,2013-03-13 16:05:00,
2013-03-13 12:10:00,34.3,18.5,30.24,West,267,3.8,12.5,52,0.00,SCT,,0.00,WeatherDisplay:10.37,2013-03-13 16:10:00,
2013-03-13 12:15:00,34.7,17.9,30.25,WNW,289,13.0,13.0,50,0.00,SCT,,0.00,WeatherDisplay:10.37,2013-03-13 16:15:00,
2013-03-13 12:20:00,34.3,17.6,30.25,NW,312,15.8,18.4,50,0.00,SCT,,0.00,WeatherDisplay:10.37,2013-03-13 16:20:00,
2013-03-13 12:25:00,33.5,17.3,30.25,NW,315,7.0,0.0,51,0.00,SCT,,0.00,WeatherDisplay:10.37,2013-03-13 16:25:00,
2013-03-13 12:30:00,32.9,17.2,30.26,WNW,289,11.2,12.7,52,0.00,SCT,,0.00,WeatherDisplay:10.37,2013-03-13 16:30:00,
2013-03-13 12:35:00,32.9,17.2,30.26,West,278,8.0,0.0,52,0.00,SCT,,0.00,WeatherDisplay:10.37,2013-03-13 16:35:00,
2013-03-13 12:40:00,32.9,17.6,30.26,WNW,289,6.7,7.6,53,0.00,SCT,,0.00,WeatherDisplay:10.37,2013-03-13 16:40:00,
2013-03-13 12:45:00,32.6,17.3,30.26,NNW,327,18.0,0.0,53,0.00,SCT,,0.00,WeatherDisplay:10.37,2013-03-13 16:45:00,
2013-03-13 12:50:00,32.5,17.3,30.26,North,357,17.4,17.4,53,0.00,SCT,,0.00,WeatherDisplay:10.37,2013-03-13 16:50:00,
2013-03-13 12:55:00,32.5,17.7,30.26,North,357,17.4,17.4,54,0.00,SCT,,0.00,WeatherDisplay:10.37,2013-03-13 16:55:00,
2013-03-13 13:00:00,32.5,17.3,30.26,West,267,9.8,9.8,53,0.00,SCT,,0.00,WeatherDisplay:10.37,2013-03-13 17:00:00,
2013-03-13 13:05:00,34.0,18.6,30.26,WNW,289,6.0,0.0,53,0.00,SCT,,0.00,WeatherDisplay:10.37,2013-03-13 17:05:00,
2013-03-13 13:10:00,34.0,18.6,30.26,WNW,289,5.3,5.3,53,0.00,BKN,,0.00,WeatherDisplay:10.37,2013-03-13 17:10:00,
2013-03-13 13:15:00,33.6,16.0,30.25,NW,304,22.0,0.0,48,0.00,BKN,,0.00,WeatherDisplay:10.37,2013-03-13 17:15:00,
2013-03-13 13:20:00,33.1,16.4,30.26,NW,312,3.6,5.8,50,0.00,BKN,,0.00,WeatherDisplay:10.37,2013-03-13 17:20:00,
2013-03-13 13:25:00,33.6,16.9,30.25,West,267,3.6,3.6,50,0.00,BKN,,0.00,WeatherDisplay:10.37,2013-03-13 17:25:00,
2013-03-13 13:30:00,35.1,18.3,30.26,West,267,4.2,5.6,50,0.00,BKN,,0.00,WeatherDisplay:10.37,2013-03-13 17:30:00,
2013-03-13 13:35:00,35.6,17.8,30.25,WSW,245,6.5,6.9,48,0.00,BKN,,0.00,WeatherDisplay:10.37,2013-03-13 17:35:00,
2013-03-13 13:40:00,36.0,18.1,30.26,West,267,6.3,9.2,48,0.00,BKN,,0.00,WeatherDisplay:10.37,2013-03-13 17:40:00,
2013-03-13 13:45:00,36.1,18.3,30.26,WNW,289,11.3,15.4,48,0.00,BKN,,0.00,WeatherDisplay:10.37,2013-03-13 17:45:00,
2013-03-13 13:50:00,35.2,17.5,30.26,NNE,19,2.0,10.4,48,0.00,BKN,,0.00,WeatherDisplay:10.37,2013-03-13 17:50:00,
2013-03-13 13:55:00,36.1,18.8,30.26,West,267,6.0,6.0,49,0.00,BKN,,0.00,WeatherDisplay:10.37,2013-03-13 17:55:00,
2013-03-13 14:00:00,36.5,18.6,30.26,WSW,245,11.5,11.5,48,0.00,BKN,,0.00,WeatherDisplay:10.37,2013-03-13 18:00:00,
2013-03-13 14:05:00,36.1,17.8,30.26,WNW,289,9.2,9.2,47,0.00,BKN,,0.00,WeatherDisplay:10.37,2013-03-13 18:05:00,
2013-03-13 14:10:00,35.4,17.2,30.26,NNW,335,6.7,8.1,47,0.00,BKN,,0.00,WeatherDisplay:10.37,2013-03-13 18:10:00,
2013-03-13 14:15:00,35.4,17.7,30.25,NNW,335,13.0,13.8,48,0.00,BKN,,0.00,WeatherDisplay:10.37,2013-03-13 18:15:00,
2013-03-13 14:20:00,35.4,17.2,30.26,WNW,289,5.1,11.5,47,0.00,BKN,,0.00,WeatherDisplay:10.37,2013-03-13 18:20:00,
2013-03-13 14:25:00,36.1,18.3,30.26,WSW,245,11.8,11.8,48,0.00,BKN,,0.00,WeatherDisplay:10.37,2013-03-13 18:25:00,
2013-03-13 14:30:00,36.3,17.0,30.25,West,267,10.6,11.2,45,0.00,BKN,,0.00,WeatherDisplay:10.37,2013-03-13 18:30:00,
2013-03-13 14:35:00,36.5,17.7,30.26,West,267,12.1,12.1,46,0.00,BKN,,0.00,WeatherDisplay:10.37,2013-03-13 18:35:00,
2013-03-13 14:40:00,36.3,17.5,30.26,West,267,8.0,8.1,46,0.00,BKN,,0.00,WeatherDisplay:10.37,2013-03-13 18:40:00,
2013-03-13 14:45:00,36.1,17.8,30.26,WSW,245,11.9,13.8,47,0.00,BKN,,0.00,WeatherDisplay:10.37,2013-03-13 18:45:00,
2013-03-13 14:50:00,36.3,17.5,30.25,WNW,289,10.7,11.8,46,0.00,BKN,,0.00,WeatherDisplay:10.37,2013-03-13 18:50:00,
2013-03-13 14:55:00,36.1,16.8,30.25,NW,312,14.2,14.2,45,0.00,BKN,,0.00,WeatherDisplay:10.37,2013-03-13 18:55:00,
2013-03-13 15:00:00,35.2,16.5,30.25,NNW,335,9.8,10.4,46,0.00,BKN,,0.00,WeatherDisplay:10.37,2013-03-13 19:00:00,
2013-03-13 15:05:00,35.2,17.5,30.26,WNW,289,10.8,13.0,48,0.00,BKN,,0.00,WeatherDisplay:10.37,2013-03-13 19:05:00,
2013-03-13 15:10:00,36.3,18.0,30.25,West,267,13.0,13.0,47,0.00,-SN,,0.00,WeatherDisplay:10.37,2013-03-13 19:10:00,
2013-03-13 15:15:00,36.7,17.8,30.25,West,267,10.3,15.0,46,0.00,-SN,,0.00,WeatherDisplay:10.37,2013-03-13 19:15:00,
2013-03-13 15:20:00,36.5,18.2,30.25,West,267,7.4,12.7,47,0.00,-SN,,0.00,WeatherDisplay:10.37,2013-03-13 19:20:00,
2013-03-13 15:25:00,37.2,18.8,30.25,WSW,245,20.8,20.8,47,0.00,-SN,,0.00,WeatherDisplay:10.37,2013-03-13 19:25:00,
2013-03-13 15:30:00,37.8,18.8,30.25,West,267,9.8,10.4,46,0.00,-SN,,0.00,WeatherDisplay:10.37,2013-03-13 19:30:00,
2013-03-13 15:35:00,37.8,18.3,30.25,West,267,14.9,16.1,45,0.00,-SN,,0.00,WeatherDisplay:10.37,2013-03-13 19:35:00,
2013-03-13 15:40:00,37.2,17.8,30.25,NW,312,8.0,8.1,45,0.00,-SN,,0.00,WeatherDisplay:10.37,2013-03-13 19:40:00,
2013-03-13 15:45:00,36.7,16.8,30.26,NW,312,11.6,11.6,44,0.00,-SN,,0.00,WeatherDisplay:10.37,2013-03-13 19:45:00,
2013-03-13 15:50:00,35.8,16.5,30.26,WSW,245,11.1,12.1,45,0.00,-SN,,0.00,WeatherDisplay:10.37,2013-03-13 19:50:00,
2013-03-13 15:55:00,35.6,16.8,30.26,WNW,289,13.6,13.6,46,0.00,-SN,,0.00,WeatherDisplay:10.37,2013-03-13 19:55:00,
2013-03-13 16:00:00,35.8,17.5,30.26,NW,312,6.5,8.7,47,0.00,-SN,,0.00,WeatherDisplay:10.37,2013-03-13 20:00:00,
2013-03-13 16:05:00,35.8,17.5,30.26,WNW,289,7.9,8.1,47,0.00,-SN,,0.00,WeatherDisplay:10.37,2013-03-13 20:05:00,
2013-03-13 16:10:00,35.8,17.5,30.26,West,267,6.2,6.2,47,0.00,-SN,,0.00,WeatherDisplay:10.37,2013-03-13 20:10:00,
2013-03-13 16:15:00,35.8,17.5,30.27,WNW,289,11.4,11.5,47,0.00,-SN,,0.00,WeatherDisplay:10.37,2013-03-13 20:15:00,
2013-03-13 16:20:00,35.8,18.0,30.27,West,267,9.7,11.5,48,0.00,-SN,,0.00,WeatherDisplay:10.37,2013-03-13 20:20:00,
2013-03-13 16:25:00,35.8,17.5,30.27,NW,312,21.9,21.9,47,0.00,-SN,,0.00,WeatherDisplay:10.37,2013-03-13 20:25:00,
2013-03-13 16:30:00,35.4,17.7,30.27,WNW,289,20.8,20.8,48,0.00,-SN,,0.00,WeatherDisplay:10.37,2013-03-13 20:30:00,
2013-03-13 16:35:00,35.4,17.7,30.27,WNW,289,20.8,20.8,48,0.00,-SN,,0.00,WeatherDisplay:10.37,2013-03-13 20:35:00,
2013-03-13 16:40:00,34.9,16.7,30.27,WNW,289,19.4,19.6,47,0.00,-SN,,0.00,WeatherDisplay:10.37,2013-03-13 20:40:00,
2013-03-13 16:45:00,34.9,17.2,30.27,NW,312,6.6,17.3,48,0.00,-SN,,0.00,WeatherDisplay:10.37,2013-03-13 20:45:00,
2013-03-13 16:50:00,35.4,18.1,30.27,West,267,8.3,9.4,49,0.00,-SN,,0.00,WeatherDisplay:10.37,2013-03-13 20:50:00,
2013-03-13 16:55:00,35.8,18.5,30.27,NW,312,3.6,3.6,49,0.00,-SN,,0.00,WeatherDisplay:10.37,2013-03-13 20:55:00,
2013-03-13 17:00:00,35.4,18.1,30.27,West,267,8.0,15.6,49,0.00,-SN,,0.00,WeatherDisplay:10.37,2013-03-13 21:00:00,
2013-03-13 17:05:00,35.4,18.1,30.27,South,177,8.8,10.4,49,0.00,-SN,,0.00,WeatherDisplay:10.37,2013-03-13 21:05:00,
2013-03-13 17:10:00,35.4,18.1,30.27,NNW,335,8.9,9.2,49,0.00,-SN,,0.00,WeatherDisplay:10.37,2013-03-13 21:10:00,
2013-03-13 17:15:00,34.3,17.6,30.27,WNW,289,16.4,19.6,50,0.00,-SN,,0.00,WeatherDisplay:10.37,2013-03-13 21:15:00,
2013-03-13 17:20:00,34.3,17.6,30.27,WNW,289,10.4,10.4,50,0.00,-SN,,0.00,WeatherDisplay:10.37,2013-03-13 21:20:00,
2013-03-13 17:25:00,34.3,17.6,30.27,NW,312,15.6,15.6,50,0.00,-SN,,0.00,WeatherDisplay:10.37,2013-03-13 21:25:00,
2013-03-13 17:30:00,34.3,17.6,30.27,NW,312,15.6,15.6,50,0.00,-SN,,0.00,WeatherDisplay:10.37,2013-03-13 21:30:00,
2013-03-13 17:35:00,34.3,17.6,30.27,NW,312,15.6,15.6,50,0.00,-SN,,0.00,WeatherDisplay:10.37,2013-03-13 21:35:00,
2013-03-13 17:40:00,34.3,18.1,30.28,West,267,12.5,16.1,51,0.00,-SN,,0.00,WeatherDisplay:10.37,2013-03-13 21:40:00,
2013-03-13 17:45:00,34.2,17.9,30.28,WNW,289,21.2,21.2,51,0.00,-SN,,0.00,WeatherDisplay:10.37,2013-03-13 21:45:00,
2013-03-13 17:50:00,34.2,17.9,30.28,WNW,289,21.2,21.2,51,0.00,-SN,,0.00,WeatherDisplay:10.37,2013-03-13 21:50:00,
2013-03-13 17:55:00,34.2,17.9,30.28,WNW,289,21.2,21.2,51,0.00,-SN,,0.00,WeatherDisplay:10.37,2013-03-13 21:55:00,
2013-03-13 18:00:00,34.2,17.9,30.28,WNW,289,21.2,21.2,51,0.00,-SN,,0.00,WeatherDisplay:10.37,2013-03-13 22:00:00,
2013-03-13 18:05:00,35.2,18.9,30.28,SW,222,4.9,5.8,51,0.00,-SN,,0.00,WeatherDisplay:10.37,2013-03-13 22:05:00,
2013-03-13 18:10:00,34.5,18.2,30.29,WNW,289,8.0,8.1,51,0.00,-SN,,0.00,WeatherDisplay:10.37,2013-03-13 22:10:00,
2013-03-13 18:15:00,34.3,18.1,30.28,NW,312,10.8,11.5,51,0.00,-SN,,0.00,WeatherDisplay:10.37,2013-03-13 22:15:00,
2013-03-13 18:20:00,34.0,17.7,30.29,NW,304,20.0,0.0,51,0.00,-SN,,0.00,WeatherDisplay:10.37,2013-03-13 22:20:00,
2013-03-13 18:25:00,33.6,17.8,30.29,WNW,289,15.5,17.3,52,0.00,-SN,,0.00,WeatherDisplay:10.37,2013-03-13 22:25:00,
2013-03-13 18:30:00,33.6,17.8,30.30,NW,312,17.2,17.2,52,0.00,-SN,,0.00,WeatherDisplay:10.37,2013-03-13 22:30:00,
2013-03-13 18:35:00,33.6,18.3,30.30,NW,312,17.2,17.2,53,0.00,-SN,,0.00,WeatherDisplay:10.37,2013-03-13 22:35:00,
2013-03-13 18:40:00,33.4,18.1,30.30,NW,312,17.2,17.2,53,0.00,-SN,,0.00,WeatherDisplay:10.37,2013-03-13 22:40:00,
2013-03-13 18:45:00,33.4,18.1,30.29,WNW,289,9.4,10.4,53,0.00,-SN,,0.00,WeatherDisplay:10.37,2013-03-13 22:45:00,
2013-03-13 18:50:00,32.9,17.6,30.29,WNW,289,9.4,10.4,53,0.00,-SN,,0.00,WeatherDisplay:10.37,2013-03-13 22:50:00,
2013-03-13 18:55:00,32.5,17.3,30.29,WNW,289,9.2,9.2,53,0.00,-SN,,0.00,WeatherDisplay:10.37,2013-03-13 22:55:00,
2013-03-13 19:00:00,32.4,17.1,30.29,NW,312,5.6,11.5,53,0.00,-SN,,0.00,WeatherDisplay:10.37,2013-03-13 23:00:00,
2013-03-13 19:05:00,32.4,18.4,30.29,NW,312,5.6,11.5,56,0.00,-SN,,0.00,WeatherDisplay:10.37,2013-03-13 23:05:00,
2013-03-13 19:10:00,32.2,18.6,30.31,NNW,335,11.4,11.4,57,0.00,-SN,,0.00,WeatherDisplay:10.37,2013-03-13 23:10:00,
2013-03-13 19:15:00,32.2,18.6,30.31,NNW,335,11.4,11.4,57,0.00,-SN,,0.00,WeatherDisplay:10.37,2013-03-13 23:15:00,
2013-03-13 19:20:00,31.8,18.3,30.31,WNW,289,6.9,9.6,57,0.00,-SN,,0.00,WeatherDisplay:10.37,2013-03-13 23:20:00,
2013-03-13 19:25:00,31.8,18.3,30.31,West,267,9.0,9.0,57,0.00,-SN,,0.00,WeatherDisplay:10.37,2013-03-13 23:25:00,
2013-03-13 19:30:00,31.6,18.5,30.31,West,267,7.6,16.1,58,0.00,-SN,,0.00,WeatherDisplay:10.37,2013-03-13 23:30:00,
2013-03-13 19:35:00,31.6,18.5,30.31,NW,312,5.8,5.8,58,0.00,-SN,,0.00,WeatherDisplay:10.37,2013-03-13 23:35:00,
2013-03-13 19:40:00,31.6,18.5,30.31,NW,312,3.6,5.8,58,0.00,-SN,,0.00,WeatherDisplay:10.37,2013-03-13 23:40:00,
2013-03-13 19:45:00,31.6,18.5,30.31,NNW,335,10.9,11.5,58,0.00,-SN,,0.00,WeatherDisplay:10.37,2013-03-13 23:45:00,
2013-03-13 19:50:00,31.6,18.1,30.31,NW,312,6.0,6.0,57,0.00,-SN,,0.00,WeatherDisplay:10.37,2013-03-13 23:50:00,
2013-03-13 19:55:00,30.7,17.7,30.31,WNW,289,4.0,6.9,58,0.00,-SN,,0.00,WeatherDisplay:10.37,2013-03-13 23:55:00,
2013-03-13 20:00:00,30.7,17.7,30.31,NNW,335,3.3,5.8,58,0.00,-SN,,0.00,WeatherDisplay:10.37,2013-03-14 00:00:00,
2013-03-13 20:05:00,30.7,17.7,30.32,NNW,335,3.1,3.5,58,0.00,-SN,,0.00,WeatherDisplay:10.37,2013-03-14 00:05:00,
2013-03-13 20:10:00,30.4,17.7,30.32,NNW,335,5.3,6.9,59,0.00,BKN,,0.00,WeatherDisplay:10.37,2013-03-14 00:10:00,
2013-03-13 20:15:00,30.2,17.6,30.32,West,267,1.0,4.6,59,0.00,BKN,,0.00,WeatherDisplay:10.37,2013-03-14 00:15:00,
2013-03-13 20:20:00,30.2,17.6,30.32,West,267,8.4,9.2,59,0.00,BKN,,0.00,WeatherDisplay:10.37,2013-03-14 00:20:00,
2013-03-13 20:25:00,30.2,17.6,30.33,NNW,335,2.5,2.5,59,0.00,BKN,,0.00,WeatherDisplay:10.37,2013-03-14 00:25:00,
2013-03-13 20:30:00,30.4,17.7,30.32,WNW,289,5.4,8.1,59,0.00,BKN,,0.00,WeatherDisplay:10.37,2013-03-14 00:30:00,
2013-03-13 20:35:00,30.2,17.6,30.32,WNW,289,3.1,3.5,59,0.00,BKN,,0.00,WeatherDisplay:10.37,2013-03-14 00:35:00,
2013-03-13 20:40:00,30.0,17.4,30.32,West,267,5.1,5.8,59,0.00,BKN,,0.00,WeatherDisplay:10.37,2013-03-14 00:40:00,
2013-03-13 20:45:00,30.0,17.4,30.32,NW,312,5.1,5.1,59,0.00,BKN,,0.00,WeatherDisplay:10.37,2013-03-14 00:45:00,
2013-03-13 20:50:00,29.9,17.3,30.33,WNW,300,3.0,0.0,59,0.00,BKN,,0.00,WeatherDisplay:10.37,2013-03-14 00:50:00,
2013-03-13 20:55:00,29.8,17.2,30.33,NW,312,3.1,4.6,59,0.00,BKN,,0.00,WeatherDisplay:10.37,2013-03-14 00:55:00,
2013-03-13 21:00:00,29.8,17.2,30.33,NW,312,7.4,8.1,59,0.00,BKN,,0.00,WeatherDisplay:10.37,2013-03-14 01:00:00,
2013-03-13 21:05:00,29.5,16.9,30.33,WNW,289,2.9,3.5,59,0.00,BKN,,0.00,WeatherDisplay:10.37,2013-03-14 01:05:00,
2013-03-13 21:10:00,29.5,16.9,30.33,WNW,289,7.4,7.4,59,0.00,BKN,,0.00,WeatherDisplay:10.37,2013-03-14 01:10:00,
2013-03-13 21:15:00,29.5,16.9,30.33,WNW,289,4.4,4.6,59,0.00,BKN,,0.00,WeatherDisplay:10.37,2013-03-14 01:15:00,
2013-03-13 21:20:00,29.5,16.9,30.32,NW,312,0.0,3.5,59,0.00,BKN,,0.00,WeatherDisplay:10.37,2013-03-14 01:20:00,
2013-03-13 21:25:00,29.1,16.6,30.33,NNW,335,4.1,4.6,59,0.00,BKN,,0.00,WeatherDisplay:10.37,2013-03-14 01:25:00,
2013-03-13 21:30:00,29.1,16.6,30.33,WNW,289,4.8,6.0,59,0.00,BKN,,0.00,WeatherDisplay:10.37,2013-03-14 01:30:00,
2013-03-13 21:35:00,29.1,16.6,30.33,WNW,289,3.1,3.5,59,0.00,BKN,,0.00,WeatherDisplay:10.37,2013-03-14 01:35:00,
2013-03-13 21:40:00,29.1,16.6,30.33,WNW,289,3.1,3.5,59,0.00,BKN,,0.00,WeatherDisplay:10.37,2013-03-14 01:40:00,
2013-03-13 21:45:00,29.1,16.6,30.33,NNW,335,4.0,4.0,59,0.00,BKN,,0.00,WeatherDisplay:10.37,2013-03-14 01:45:00,
2013-03-13 21:50:00,29.1,16.6,30.33,NW,312,2.5,3.5,59,0.00,BKN,,0.00,WeatherDisplay:10.37,2013-03-14 01:50:00,
2013-03-13 21:55:00,29.1,16.6,30.33,WNW,289,4.1,4.6,59,0.00,BKN,,0.00,WeatherDisplay:10.37,2013-03-14 01:55:00,
2013-03-13 22:00:00,29.1,16.6,30.34,North,357,5.1,5.1,59,0.00,BKN,,0.00,WeatherDisplay:10.37,2013-03-14 02:00:00,
2013-03-13 22:05:00,29.1,16.6,30.33,NW,312,3.2,3.5,59,0.00,BKN,,0.00,WeatherDisplay:10.37,2013-03-14 02:05:00,
2013-03-13 22:10:00,28.8,16.2,30.34,NW,312,1.7,2.5,59,0.00,FEW,,0.00,WeatherDisplay:10.37,2013-03-14 02:10:00,
2013-03-13 22:15:00,28.8,16.2,30.34,WNW,289,0.0,3.5,59,0.00,FEW,,0.00,WeatherDisplay:10.37,2013-03-14 02:15:00,
2013-03-13 22:20:00,28.6,16.4,30.34,WNW,289,2.7,3.5,60,0.00,FEW,,0.00,WeatherDisplay:10.37,2013-03-14 02:20:00,
2013-03-13 22:25:00,28.6,16.4,30.34,West,267,2.2,2.3,60,0.00,FEW,,0.00,WeatherDisplay:10.37,2013-03-14 02:25:00,
2013-03-13 22:30:00,28.6,16.4,30.34,West,267,0.0,0.0,60,0.00,FEW,,0.00,WeatherDisplay:10.37,2013-03-14 02:30:00,
2013-03-13 22:35:00,28.2,16.1,30.35,WNW,289,1.9,2.3,60,0.00,FEW,,0.00,WeatherDisplay:10.37,2013-03-14 02:35:00,
2013-03-13 22:40:00,28.2,16.1,30.35,West,267,2.7,2.7,60,0.00,FEW,,0.00,WeatherDisplay:10.37,2013-03-14 02:40:00,
2013-03-13 22:45:00,28.0,16.3,30.35,NW,312,0.0,3.5,61,0.00,FEW,,0.00,WeatherDisplay:10.37,2013-03-14 02:45:00,
2013-03-13 22:50:00,27.9,16.1,30.35,WNW,289,0.9,1.1,61,0.00,FEW,,0.00,WeatherDisplay:10.37,2013-03-14 02:50:00,
2013-03-13 22:55:00,27.7,16.3,30.35,WNW,289,0.4,1.1,62,0.00,FEW,,0.00,WeatherDisplay:10.37,2013-03-14 02:55:00,
2013-03-13 23:00:00,27.7,16.3,30.35,WNW,289,0.6,1.1,62,0.00,FEW,,0.00,WeatherDisplay:10.37,2013-03-14 03:00:00,
2013-03-13 23:05:00,27.5,16.2,30.35,West,267,0.4,1.6,62,0.00,FEW,,0.00,WeatherDisplay:10.37,2013-03-14 03:05:00,
2013-03-13 23:10:00,27.5,16.2,30.36,WNW,289,1.3,1.3,62,0.00,CLR,,0.00,WeatherDisplay:10.37,2013-03-14 03:10:00,
2013-03-13 23:15:00,27.1,15.8,30.35,WNW,289,2.0,2.3,62,0.00,CLR,,0.00,WeatherDisplay:10.37,2013-03-14 03:15:00,
2013-03-13 23:20:00,27.0,16.0,30.35,WNW,289,2.7,2.7,63,0.00,CLR,,0.00,WeatherDisplay:10.37,2013-03-14 03:20:00,
2013-03-13 23:25:00,26.8,15.9,30.36,NW,312,1.8,2.3,63,0.00,CLR,,0.00,WeatherDisplay:10.37,2013-03-14 03:25:00,
2013-03-13 23:30:00,26.8,16.2,30.36,WNW,289,3.6,3.6,64,0.00,CLR,,0.00,WeatherDisplay:10.37,2013-03-14 03:30:00,
2013-03-13 23:35:00,26.8,16.2,30.36,NW,312,0.0,0.0,64,0.00,CLR,,0.00,WeatherDisplay:10.37,2013-03-14 03:35:00,
2013-03-13 23:40:00,26.4,15.9,30.36,WNW,289,3.4,3.5,64,0.00,CLR,,0.00,WeatherDisplay:10.37,2013-03-14 03:40:00,
2013-03-13 23:45:00,26.4,15.9,30.36,West,267,0.0,0.0,64,0.00,CLR,,0.00,WeatherDisplay:10.37,2013-03-14 03:45:00,
2013-03-13 23:50:00,26.4,16.2,30.35,NNW,335,0.1,3.5,65,0.00,CLR,,0.00,WeatherDisplay:10.37,2013-03-14 03:50:00,
2013-03-13 23:55:00,26.4,16.2,30.36,West,267,0.0,0.0,65,0.00,CLR,,0.00,WeatherDisplay:10.37,2013-03-14 03:55:00,